sensor_id;sensor_type;location;lat;lon;timestamp;temperature;humidity
7307;DHT22;3694;48.732;9.248;2022-12-18T00:00:05;-9.90;99.90
7307;DHT22;3694;48.732;9.248;2022-12-18T00:02:31;-9.90;99.90
7307;DHT22;3694;48.732;9.248;2022-12-18T00:04:57;-9.90;99.90
7307;DHT22;3694;48.732;9.248;2022-12-18T00:07:22;-9.90;99.90
7307;DHT22;3694;48.732;9.248;2022-12-18T00:09:48;-9.90;99.90
7307;DHT22;3694;48.732;9.248;2022-12-18T00:12:13;-9.80;99.90
7307;DHT22;3694;48.732;9.248;2022-12-18T00:14:39;-9.90;99.90
7307;DHT22;3694;48.732;9.248;2022-12-18T00:17:04;-9.90;99.90
7307;DHT22;3694;48.732;9.248;2022-12-18T00:19:30;-9.90;99.90
7307;DHT22;3694;48.732;9.248;2022-12-18T00:21:55;-9.90;99.90
7307;DHT22;3694;48.732;9.248;2022-12-18T00:24:21;-9.90;99.90
7307;DHT22;3694;48.732;9.248;2022-12-18T00:26:46;-9.90;99.90
7307;DHT22;3694;48.732;9.248;2022-12-18T00:29:13;-9.90;99.90
7307;DHT22;3694;48.732;9.248;2022-12-18T00:31:39;-9.90;99.90
7307;DHT22;3694;48.732;9.248;2022-12-18T00:34:05;-9.90;99.90
7307;DHT22;3694;48.732;9.248;2022-12-18T00:36:33;-9.80;99.90
7307;DHT22;3694;48.732;9.248;2022-12-18T00:39:01;-9.90;99.90
7307;DHT22;3694;48.732;9.248;2022-12-18T00:41:27;-9.90;99.90
7307;DHT22;3694;48.732;9.248;2022-12-18T00:44:14;-9.90;99.90
7307;DHT22;3694;48.732;9.248;2022-12-18T00:46:40;-10.10;99.90
7307;DHT22;3694;48.732;9.248;2022-12-18T00:49:07;-10.10;99.90
7307;DHT22;3694;48.732;9.248;2022-12-18T00:51:32;-10.00;99.90
7307;DHT22;3694;48.732;9.248;2022-12-18T00:53:58;-9.90;99.90
7307;DHT22;3694;48.732;9.248;2022-12-18T00:56:24;-10.00;99.90
7307;DHT22;3694;48.732;9.248;2022-12-18T00:58:50;-10.00;99.90
7307;DHT22;3694;48.732;9.248;2022-12-18T01:01:16;-10.10;99.90
7307;DHT22;3694;48.732;9.248;2022-12-18T01:03:42;-10.00;99.90
7307;DHT22;3694;48.732;9.248;2022-12-18T01:06:10;-10.00;99.90
7307;DHT22;3694;48.732;9.248;2022-12-18T01:08:37;-10.00;99.90
7307;DHT22;3694;48.732;9.248;2022-12-18T01:11:17;-9.90;99.90
7307;DHT22;3694;48.732;9.248;2022-12-18T01:13:43;-9.90;99.90
7307;DHT22;3694;48.732;9.248;2022-12-18T01:16:15;-9.90;99.90
7307;DHT22;3694;48.732;9.248;2022-12-18T01:18:41;-9.90;99.90
7307;DHT22;3694;48.732;9.248;2022-12-18T01:21:12;-9.90;99.90
7307;DHT22;3694;48.732;9.248;2022-12-18T01:23:38;-10.00;99.90
7307;DHT22;3694;48.732;9.248;2022-12-18T01:26:06;-10.10;99.90
7307;DHT22;3694;48.732;9.248;2022-12-18T01:28:32;-10.10;99.90
7307;DHT22;3694;48.732;9.248;2022-12-18T01:30:57;-10.20;99.90
7307;DHT22;3694;48.732;9.248;2022-12-18T01:33:23;-10.30;99.90
7307;DHT22;3694;48.732;9.248;2022-12-18T01:35:49;-10.40;99.90
7307;DHT22;3694;48.732;9.248;2022-12-18T01:38:14;-10.70;99.90
7307;DHT22;3694;48.732;9.248;2022-12-18T01:40:40;-10.80;99.90
7307;DHT22;3694;48.732;9.248;2022-12-18T01:43:05;-11.00;99.90
7307;DHT22;3694;48.732;9.248;2022-12-18T01:45:31;-11.20;99.90
7307;DHT22;3694;48.732;9.248;2022-12-18T01:48:06;-11.40;99.90
7307;DHT22;3694;48.732;9.248;2022-12-18T01:50:40;-11.60;99.90
7307;DHT22;3694;48.732;9.248;2022-12-18T01:53:11;-11.70;99.90
7307;DHT22;3694;48.732;9.248;2022-12-18T01:55:42;-11.80;99.90
7307;DHT22;3694;48.732;9.248;2022-12-18T01:58:08;-11.90;99.90
7307;DHT22;3694;48.732;9.248;2022-12-18T02:00:34;-11.90;99.90
7307;DHT22;3694;48.732;9.248;2022-12-18T02:03:00;-11.80;99.90
7307;DHT22;3694;48.732;9.248;2022-12-18T02:05:44;-11.80;99.90
7307;DHT22;3694;48.732;9.248;2022-12-18T02:08:20;-11.90;99.90
7307;DHT22;3694;48.732;9.248;2022-12-18T02:18:43;-11.60;99.90
7307;DHT22;3694;48.732;9.248;2022-12-18T02:21:28;-11.30;99.90
7307;DHT22;3694;48.732;9.248;2022-12-18T02:26:37;-10.80;99.90
7307;DHT22;3694;48.732;9.248;2022-12-18T02:29:18;-10.60;99.90
7307;DHT22;3694;48.732;9.248;2022-12-18T02:31:51;-10.40;99.90
7307;DHT22;3694;48.732;9.248;2022-12-18T02:34:18;-10.30;99.90
7307;DHT22;3694;48.732;9.248;2022-12-18T02:36:45;-10.20;99.90
7307;DHT22;3694;48.732;9.248;2022-12-18T02:39:13;-10.20;99.90
7307;DHT22;3694;48.732;9.248;2022-12-18T02:41:39;-10.20;99.90
7307;DHT22;3694;48.732;9.248;2022-12-18T02:44:10;-10.40;99.90
7307;DHT22;3694;48.732;9.248;2022-12-18T02:46:39;-10.50;99.90
7307;DHT22;3694;48.732;9.248;2022-12-18T02:51:56;-10.80;99.90
7307;DHT22;3694;48.732;9.248;2022-12-18T02:54:43;-10.90;99.90
7307;DHT22;3694;48.732;9.248;2022-12-18T03:00:12;-11.00;99.90
7307;DHT22;3694;48.732;9.248;2022-12-18T03:05:31;-11.10;99.90
7307;DHT22;3694;48.732;9.248;2022-12-18T03:08:06;-11.20;99.90
7307;DHT22;3694;48.732;9.248;2022-12-18T03:10:37;-11.30;99.90
7307;DHT22;3694;48.732;9.248;2022-12-18T03:13:12;-11.40;99.90
7307;DHT22;3694;48.732;9.248;2022-12-18T03:15:44;-11.50;99.90
7307;DHT22;3694;48.732;9.248;2022-12-18T03:18:18;-11.40;99.90
7307;DHT22;3694;48.732;9.248;2022-12-18T03:20:47;-11.40;99.90
7307;DHT22;3694;48.732;9.248;2022-12-18T03:23:18;-11.40;99.90
7307;DHT22;3694;48.732;9.248;2022-12-18T03:25:46;-11.30;99.90
7307;DHT22;3694;48.732;9.248;2022-12-18T03:28:16;-11.10;99.90
7307;DHT22;3694;48.732;9.248;2022-12-18T03:30:46;-11.00;99.90
7307;DHT22;3694;48.732;9.248;2022-12-18T03:33:30;-11.00;99.90
7307;DHT22;3694;48.732;9.248;2022-12-18T03:35:57;-11.10;99.90
7307;DHT22;3694;48.732;9.248;2022-12-18T03:38:22;-11.30;99.90
7307;DHT22;3694;48.732;9.248;2022-12-18T03:41:15;-11.40;99.90
7307;DHT22;3694;48.732;9.248;2022-12-18T03:44:15;-11.60;99.90
7307;DHT22;3694;48.732;9.248;2022-12-18T03:46:54;-11.60;99.90
7307;DHT22;3694;48.732;9.248;2022-12-18T03:49:28;-11.70;99.90
7307;DHT22;3694;48.732;9.248;2022-12-18T03:52:03;-11.90;99.90
7307;DHT22;3694;48.732;9.248;2022-12-18T03:54:30;-11.90;99.90
7307;DHT22;3694;48.732;9.248;2022-12-18T03:57:04;-11.80;99.90
7307;DHT22;3694;48.732;9.248;2022-12-18T03:59:32;-11.80;99.90
7307;DHT22;3694;48.732;9.248;2022-12-18T04:01:59;-11.80;99.90
7307;DHT22;3694;48.732;9.248;2022-12-18T04:04:27;-11.80;99.90
7307;DHT22;3694;48.732;9.248;2022-12-18T04:06:54;-11.90;99.90
7307;DHT22;3694;48.732;9.248;2022-12-18T04:09:21;-11.90;99.90
7307;DHT22;3694;48.732;9.248;2022-12-18T04:11:47;-11.80;99.90
7307;DHT22;3694;48.732;9.248;2022-12-18T04:14:14;-11.70;99.90
7307;DHT22;3694;48.732;9.248;2022-12-18T04:16:39;-11.60;99.90
7307;DHT22;3694;48.732;9.248;2022-12-18T04:19:05;-11.60;99.90
7307;DHT22;3694;48.732;9.248;2022-12-18T04:21:31;-11.50;99.90
7307;DHT22;3694;48.732;9.248;2022-12-18T04:23:56;-11.40;99.90
7307;DHT22;3694;48.732;9.248;2022-12-18T04:26:22;-11.30;99.90
7307;DHT22;3694;48.732;9.248;2022-12-18T04:28:48;-11.30;99.90
7307;DHT22;3694;48.732;9.248;2022-12-18T04:31:13;-11.40;99.90
7307;DHT22;3694;48.732;9.248;2022-12-18T04:33:39;-11.40;99.90
7307;DHT22;3694;48.732;9.248;2022-12-18T04:36:05;-11.40;99.90
7307;DHT22;3694;48.732;9.248;2022-12-18T04:38:30;-11.60;99.90
7307;DHT22;3694;48.732;9.248;2022-12-18T04:40:56;-11.50;99.90
7307;DHT22;3694;48.732;9.248;2022-12-18T04:43:21;-11.70;99.90
7307;DHT22;3694;48.732;9.248;2022-12-18T04:45:47;-11.70;99.90
7307;DHT22;3694;48.732;9.248;2022-12-18T04:48:12;-11.80;99.90
7307;DHT22;3694;48.732;9.248;2022-12-18T04:50:38;-11.80;99.90
7307;DHT22;3694;48.732;9.248;2022-12-18T04:53:03;-11.80;99.90
7307;DHT22;3694;48.732;9.248;2022-12-18T04:55:29;-11.70;99.90
7307;DHT22;3694;48.732;9.248;2022-12-18T04:57:55;-11.70;99.90
7307;DHT22;3694;48.732;9.248;2022-12-18T05:00:21;-11.70;99.90
7307;DHT22;3694;48.732;9.248;2022-12-18T05:02:47;-10.80;99.90
7307;DHT22;3694;48.732;9.248;2022-12-18T05:05:12;-11.60;99.90
7307;DHT22;3694;48.732;9.248;2022-12-18T05:07:38;-11.60;99.90
7307;DHT22;3694;48.732;9.248;2022-12-18T05:10:07;-11.60;99.90
7307;DHT22;3694;48.732;9.248;2022-12-18T05:12:32;-11.80;99.90
7307;DHT22;3694;48.732;9.248;2022-12-18T05:14:58;-11.90;99.90
7307;DHT22;3694;48.732;9.248;2022-12-18T05:17:23;-12.00;99.90
7307;DHT22;3694;48.732;9.248;2022-12-18T05:19:49;-12.00;99.90
7307;DHT22;3694;48.732;9.248;2022-12-18T05:22:15;-12.00;99.90
7307;DHT22;3694;48.732;9.248;2022-12-18T05:24:40;-12.10;99.90
7307;DHT22;3694;48.732;9.248;2022-12-18T05:27:06;-12.10;99.90
7307;DHT22;3694;48.732;9.248;2022-12-18T05:29:32;-12.20;99.90
7307;DHT22;3694;48.732;9.248;2022-12-18T05:31:57;-12.30;99.90
7307;DHT22;3694;48.732;9.248;2022-12-18T05:34:23;-12.20;99.90
7307;DHT22;3694;48.732;9.248;2022-12-18T05:36:48;-12.20;99.90
7307;DHT22;3694;48.732;9.248;2022-12-18T05:39:14;-12.30;99.90
7307;DHT22;3694;48.732;9.248;2022-12-18T05:41:39;-12.40;99.90
7307;DHT22;3694;48.732;9.248;2022-12-18T05:44:05;-12.40;99.90
7307;DHT22;3694;48.732;9.248;2022-12-18T05:46:30;-12.50;99.90
7307;DHT22;3694;48.732;9.248;2022-12-18T05:48:59;-12.60;99.90
7307;DHT22;3694;48.732;9.248;2022-12-18T05:51:25;-12.70;99.90
7307;DHT22;3694;48.732;9.248;2022-12-18T05:53:51;-12.70;99.90
7307;DHT22;3694;48.732;9.248;2022-12-18T05:56:19;-12.60;99.90
7307;DHT22;3694;48.732;9.248;2022-12-18T05:58:45;-12.50;99.90
7307;DHT22;3694;48.732;9.248;2022-12-18T06:01:15;-12.40;99.90
7307;DHT22;3694;48.732;9.248;2022-12-18T06:03:42;-12.30;99.90
7307;DHT22;3694;48.732;9.248;2022-12-18T06:06:16;-12.30;99.90
7307;DHT22;3694;48.732;9.248;2022-12-18T06:08:42;-12.30;99.90
7307;DHT22;3694;48.732;9.248;2022-12-18T06:11:07;-12.30;99.90
7307;DHT22;3694;48.732;9.248;2022-12-18T06:13:33;-12.30;99.90
7307;DHT22;3694;48.732;9.248;2022-12-18T06:16:02;-12.20;99.90
7307;DHT22;3694;48.732;9.248;2022-12-18T06:18:27;-12.20;99.90
7307;DHT22;3694;48.732;9.248;2022-12-18T06:20:57;-12.10;99.90
7307;DHT22;3694;48.732;9.248;2022-12-18T06:23:23;-12.30;99.90
7307;DHT22;3694;48.732;9.248;2022-12-18T06:25:48;-12.50;99.90
7307;DHT22;3694;48.732;9.248;2022-12-18T06:28:14;-12.80;99.90
7307;DHT22;3694;48.732;9.248;2022-12-18T06:30:39;-12.80;99.90
7307;DHT22;3694;48.732;9.248;2022-12-18T06:33:05;-12.80;99.90
7307;DHT22;3694;48.732;9.248;2022-12-18T06:35:32;-12.80;99.90
7307;DHT22;3694;48.732;9.248;2022-12-18T06:37:57;-12.70;99.90
7307;DHT22;3694;48.732;9.248;2022-12-18T06:40:23;-12.60;99.90
7307;DHT22;3694;48.732;9.248;2022-12-18T06:42:48;-12.40;99.90
7307;DHT22;3694;48.732;9.248;2022-12-18T06:45:15;-12.40;99.90
7307;DHT22;3694;48.732;9.248;2022-12-18T06:47:41;-12.40;99.90
7307;DHT22;3694;48.732;9.248;2022-12-18T06:50:06;-12.20;99.90
7307;DHT22;3694;48.732;9.248;2022-12-18T06:52:33;-12.20;99.90
7307;DHT22;3694;48.732;9.248;2022-12-18T06:54:59;-12.10;99.90
7307;DHT22;3694;48.732;9.248;2022-12-18T06:57:24;-12.10;99.90
7307;DHT22;3694;48.732;9.248;2022-12-18T06:59:50;-12.00;99.90
7307;DHT22;3694;48.732;9.248;2022-12-18T07:02:15;-12.00;99.90
7307;DHT22;3694;48.732;9.248;2022-12-18T07:04:41;-11.90;99.90
7307;DHT22;3694;48.732;9.248;2022-12-18T07:07:07;-11.90;99.90
7307;DHT22;3694;48.732;9.248;2022-12-18T07:09:32;-11.80;99.90
7307;DHT22;3694;48.732;9.248;2022-12-18T07:11:58;-11.80;99.90
7307;DHT22;3694;48.732;9.248;2022-12-18T07:14:23;-11.80;99.90
7307;DHT22;3694;48.732;9.248;2022-12-18T07:16:49;-11.80;99.90
7307;DHT22;3694;48.732;9.248;2022-12-18T07:19:14;-11.70;99.90
7307;DHT22;3694;48.732;9.248;2022-12-18T07:21:40;-11.60;99.90
7307;DHT22;3694;48.732;9.248;2022-12-18T07:24:06;-11.60;99.90
7307;DHT22;3694;48.732;9.248;2022-12-18T07:26:32;-11.50;99.90
7307;DHT22;3694;48.732;9.248;2022-12-18T07:28:57;-11.50;99.90
7307;DHT22;3694;48.732;9.248;2022-12-18T07:31:23;-11.60;99.90
7307;DHT22;3694;48.732;9.248;2022-12-18T07:33:50;-11.50;99.90
7307;DHT22;3694;48.732;9.248;2022-12-18T07:36:16;-11.50;99.90
7307;DHT22;3694;48.732;9.248;2022-12-18T07:38:42;-11.40;99.90
7307;DHT22;3694;48.732;9.248;2022-12-18T07:41:10;-11.40;99.90
7307;DHT22;3694;48.732;9.248;2022-12-18T07:43:36;-11.30;99.90
7307;DHT22;3694;48.732;9.248;2022-12-18T07:46:03;-11.30;99.90
7307;DHT22;3694;48.732;9.248;2022-12-18T07:48:29;-11.20;99.90
7307;DHT22;3694;48.732;9.248;2022-12-18T07:50:59;-11.00;99.90
7307;DHT22;3694;48.732;9.248;2022-12-18T07:53:24;-10.90;99.90
7307;DHT22;3694;48.732;9.248;2022-12-18T07:55:57;-10.70;99.90
7307;DHT22;3694;48.732;9.248;2022-12-18T07:58:23;-10.80;99.90
7307;DHT22;3694;48.732;9.248;2022-12-18T08:00:49;-10.70;99.90
7307;DHT22;3694;48.732;9.248;2022-12-18T08:03:15;-10.50;99.90
7307;DHT22;3694;48.732;9.248;2022-12-18T08:05:40;-10.30;99.90
7307;DHT22;3694;48.732;9.248;2022-12-18T08:08:06;-10.30;99.90
7307;DHT22;3694;48.732;9.248;2022-12-18T08:10:31;-10.20;99.90
7307;DHT22;3694;48.732;9.248;2022-12-18T08:12:57;-10.10;99.90
7307;DHT22;3694;48.732;9.248;2022-12-18T08:15:23;-10.00;99.90
7307;DHT22;3694;48.732;9.248;2022-12-18T08:17:48;-9.90;99.90
7307;DHT22;3694;48.732;9.248;2022-12-18T08:20:14;-9.50;99.90
7307;DHT22;3694;48.732;9.248;2022-12-18T08:22:41;-9.00;99.90
7307;DHT22;3694;48.732;9.248;2022-12-18T08:25:07;-9.60;99.90
7307;DHT22;3694;48.732;9.248;2022-12-18T08:27:33;-9.50;99.90
7307;DHT22;3694;48.732;9.248;2022-12-18T08:29:59;-9.40;99.90
7307;DHT22;3694;48.732;9.248;2022-12-18T08:32:26;-9.30;99.90
7307;DHT22;3694;48.732;9.248;2022-12-18T08:34:51;-8.40;99.90
7307;DHT22;3694;48.732;9.248;2022-12-18T08:37:17;-8.90;99.90
7307;DHT22;3694;48.732;9.248;2022-12-18T08:39:43;-9.10;99.90
7307;DHT22;3694;48.732;9.248;2022-12-18T08:42:08;-9.00;99.90
7307;DHT22;3694;48.732;9.248;2022-12-18T08:44:52;-9.00;99.90
7307;DHT22;3694;48.732;9.248;2022-12-18T08:47:18;-8.90;99.90
7307;DHT22;3694;48.732;9.248;2022-12-18T08:49:45;-8.90;99.90
7307;DHT22;3694;48.732;9.248;2022-12-18T08:52:10;-8.90;99.90
7307;DHT22;3694;48.732;9.248;2022-12-18T08:54:36;-8.80;99.90
7307;DHT22;3694;48.732;9.248;2022-12-18T08:57:02;-8.70;99.90
7307;DHT22;3694;48.732;9.248;2022-12-18T08:59:27;-8.10;99.90
7307;DHT22;3694;48.732;9.248;2022-12-18T09:01:54;-8.50;99.90
7307;DHT22;3694;48.732;9.248;2022-12-18T09:04:20;-8.30;99.90
7307;DHT22;3694;48.732;9.248;2022-12-18T09:06:46;-7.60;99.90
7307;DHT22;3694;48.732;9.248;2022-12-18T09:09:11;-7.00;99.90
7307;DHT22;3694;48.732;9.248;2022-12-18T09:11:38;-7.20;99.90
7307;DHT22;3694;48.732;9.248;2022-12-18T09:14:03;-7.90;99.90
7307;DHT22;3694;48.732;9.248;2022-12-18T09:16:30;-7.80;99.90
7307;DHT22;3694;48.732;9.248;2022-12-18T09:18:57;-7.80;99.90
7307;DHT22;3694;48.732;9.248;2022-12-18T09:21:31;-7.80;99.90
7307;DHT22;3694;48.732;9.248;2022-12-18T09:23:57;-7.80;99.90
7307;DHT22;3694;48.732;9.248;2022-12-18T09:26:24;-7.50;99.90
7307;DHT22;3694;48.732;9.248;2022-12-18T09:28:50;-7.20;99.90
7307;DHT22;3694;48.732;9.248;2022-12-18T09:31:17;-7.60;99.90
7307;DHT22;3694;48.732;9.248;2022-12-18T09:33:43;-7.50;99.90
7307;DHT22;3694;48.732;9.248;2022-12-18T09:36:12;-7.40;99.90
7307;DHT22;3694;48.732;9.248;2022-12-18T09:38:38;-7.30;99.90
7307;DHT22;3694;48.732;9.248;2022-12-18T09:41:05;-6.50;99.90
7307;DHT22;3694;48.732;9.248;2022-12-18T09:43:48;-7.20;99.90
7307;DHT22;3694;48.732;9.248;2022-12-18T09:46:18;-7.00;99.90
7307;DHT22;3694;48.732;9.248;2022-12-18T09:48:48;-6.70;99.90
7307;DHT22;3694;48.732;9.248;2022-12-18T09:51:21;-6.80;99.90
7307;DHT22;3694;48.732;9.248;2022-12-18T09:53:56;-6.80;99.90
7307;DHT22;3694;48.732;9.248;2022-12-18T09:56:28;-6.90;99.90
7307;DHT22;3694;48.732;9.248;2022-12-18T09:58:58;-7.00;99.90
7307;DHT22;3694;48.732;9.248;2022-12-18T10:01:25;-7.00;99.90
7307;DHT22;3694;48.732;9.248;2022-12-18T10:03:52;-6.90;99.90
7307;DHT22;3694;48.732;9.248;2022-12-18T10:09:09;-6.70;99.90
7307;DHT22;3694;48.732;9.248;2022-12-18T10:17:26;-6.50;99.90
7307;DHT22;3694;48.732;9.248;2022-12-18T10:19:59;-6.40;99.90
7307;DHT22;3694;48.732;9.248;2022-12-18T10:27:39;-6.20;99.90
7307;DHT22;3694;48.732;9.248;2022-12-18T10:30:13;-5.90;99.90
7307;DHT22;3694;48.732;9.248;2022-12-18T10:32:41;-5.90;99.90
7307;DHT22;3694;48.732;9.248;2022-12-18T10:35:26;-5.70;99.90
7307;DHT22;3694;48.732;9.248;2022-12-18T10:40:50;-5.80;99.90
7307;DHT22;3694;48.732;9.248;2022-12-18T10:43:20;-5.70;99.90
7307;DHT22;3694;48.732;9.248;2022-12-18T10:48:39;-5.50;99.90
7307;DHT22;3694;48.732;9.248;2022-12-18T10:51:06;-5.50;99.90
7307;DHT22;3694;48.732;9.248;2022-12-18T10:53:34;-5.50;99.90
7307;DHT22;3694;48.732;9.248;2022-12-18T10:56:04;-5.50;99.90
7307;DHT22;3694;48.732;9.248;2022-12-18T10:58:38;-5.50;99.90
7307;DHT22;3694;48.732;9.248;2022-12-18T11:01:13;-5.10;99.90
7307;DHT22;3694;48.732;9.248;2022-12-18T11:03:42;-5.40;99.90
7307;DHT22;3694;48.732;9.248;2022-12-18T11:06:14;-5.30;99.90
7307;DHT22;3694;48.732;9.248;2022-12-18T11:08:42;-5.00;99.90
7307;DHT22;3694;48.732;9.248;2022-12-18T11:11:20;-4.90;99.90
7307;DHT22;3694;48.732;9.248;2022-12-18T11:14:12;-4.80;99.90
7307;DHT22;3694;48.732;9.248;2022-12-18T11:16:45;-4.80;99.90
7307;DHT22;3694;48.732;9.248;2022-12-18T11:19:37;-4.20;99.90
7307;DHT22;3694;48.732;9.248;2022-12-18T11:22:24;-4.50;99.90
7307;DHT22;3694;48.732;9.248;2022-12-18T11:25:04;-4.40;99.90
7307;DHT22;3694;48.732;9.248;2022-12-18T11:27:31;-4.40;99.90
7307;DHT22;3694;48.732;9.248;2022-12-18T11:32:49;-4.30;99.90
7307;DHT22;3694;48.732;9.248;2022-12-18T11:35:32;-4.30;99.90
7307;DHT22;3694;48.732;9.248;2022-12-18T11:38:17;-4.30;99.90
7307;DHT22;3694;48.732;9.248;2022-12-18T11:40:47;-4.30;99.90
7307;DHT22;3694;48.732;9.248;2022-12-18T11:43:54;-4.30;99.90
7307;DHT22;3694;48.732;9.248;2022-12-18T11:46:37;-4.30;99.90
7307;DHT22;3694;48.732;9.248;2022-12-18T11:49:10;-4.30;99.90
7307;DHT22;3694;48.732;9.248;2022-12-18T11:51:58;-4.30;99.90
7307;DHT22;3694;48.732;9.248;2022-12-18T11:54:25;-4.20;99.90
7307;DHT22;3694;48.732;9.248;2022-12-18T11:56:56;-4.00;99.90
7307;DHT22;3694;48.732;9.248;2022-12-18T11:59:55;-4.00;99.90
7307;DHT22;3694;48.732;9.248;2022-12-18T12:02:42;-4.00;99.90
7307;DHT22;3694;48.732;9.248;2022-12-18T12:16:16;-3.70;99.90
7307;DHT22;3694;48.732;9.248;2022-12-18T12:24:02;-3.60;99.90
7307;DHT22;3694;48.732;9.248;2022-12-18T12:29:48;-3.60;99.90
7307;DHT22;3694;48.732;9.248;2022-12-18T12:32:49;-3.50;99.90
7307;DHT22;3694;48.732;9.248;2022-12-18T12:38:35;-3.30;99.90
7307;DHT22;3694;48.732;9.248;2022-12-18T12:41:04;-3.20;99.90
7307;DHT22;3694;48.732;9.248;2022-12-18T12:43:44;-3.20;99.90
7307;DHT22;3694;48.732;9.248;2022-12-18T12:46:13;-3.10;99.90
7307;DHT22;3694;48.732;9.248;2022-12-18T12:48:54;-3.00;99.90
7307;DHT22;3694;48.732;9.248;2022-12-18T12:51:41;-2.90;99.90
7307;DHT22;3694;48.732;9.248;2022-12-18T12:54:19;-2.90;99.90
7307;DHT22;3694;48.732;9.248;2022-12-18T13:03:01;-2.70;99.90
7307;DHT22;3694;48.732;9.248;2022-12-18T13:05:40;-2.70;99.90
7307;DHT22;3694;48.732;9.248;2022-12-18T13:08:25;-2.60;99.90
7307;DHT22;3694;48.732;9.248;2022-12-18T13:10:56;-2.60;99.90
7307;DHT22;3694;48.732;9.248;2022-12-18T13:13:55;-2.50;99.90
7307;DHT22;3694;48.732;9.248;2022-12-18T13:16:23;-2.60;99.90
7307;DHT22;3694;48.732;9.248;2022-12-18T13:18:50;-2.50;99.90
7307;DHT22;3694;48.732;9.248;2022-12-18T13:21:32;-2.50;99.90
7307;DHT22;3694;48.732;9.248;2022-12-18T13:24:15;-2.50;99.90
7307;DHT22;3694;48.732;9.248;2022-12-18T13:26:46;-2.50;99.90
7307;DHT22;3694;48.732;9.248;2022-12-18T13:29:41;-2.40;99.90
7307;DHT22;3694;48.732;9.248;2022-12-18T13:32:21;-2.40;99.90
7307;DHT22;3694;48.732;9.248;2022-12-18T13:34:47;-2.40;99.90
7307;DHT22;3694;48.732;9.248;2022-12-18T13:37:51;-2.40;99.90
7307;DHT22;3694;48.732;9.248;2022-12-18T13:48:37;-2.20;99.90
7307;DHT22;3694;48.732;9.248;2022-12-18T13:51:09;-2.40;99.90
7307;DHT22;3694;48.732;9.248;2022-12-18T13:53:43;-2.30;99.90
7307;DHT22;3694;48.732;9.248;2022-12-18T13:56:16;-2.50;99.90
7307;DHT22;3694;48.732;9.248;2022-12-18T13:58:41;-2.50;99.90
7307;DHT22;3694;48.732;9.248;2022-12-18T14:01:22;-2.60;99.90
7307;DHT22;3694;48.732;9.248;2022-12-18T14:03:48;-2.70;99.90
7307;DHT22;3694;48.732;9.248;2022-12-18T14:06:14;-2.70;99.90
7307;DHT22;3694;48.732;9.248;2022-12-18T14:08:42;-2.70;99.90
7307;DHT22;3694;48.732;9.248;2022-12-18T14:11:18;-2.90;99.90
7307;DHT22;3694;48.732;9.248;2022-12-18T14:13:46;-3.00;99.90
7307;DHT22;3694;48.732;9.248;2022-12-18T14:16:14;-3.10;99.90
7307;DHT22;3694;48.732;9.248;2022-12-18T14:18:55;-3.10;99.90
7307;DHT22;3694;48.732;9.248;2022-12-18T14:21:29;-3.20;99.90
7307;DHT22;3694;48.732;9.248;2022-12-18T14:24:18;-3.30;99.90
7307;DHT22;3694;48.732;9.248;2022-12-18T14:26:45;-3.40;99.90
7307;DHT22;3694;48.732;9.248;2022-12-18T14:29:26;-3.40;99.90
7307;DHT22;3694;48.732;9.248;2022-12-18T14:32:13;-3.50;99.90
7307;DHT22;3694;48.732;9.248;2022-12-18T14:34:45;-3.60;99.90
7307;DHT22;3694;48.732;9.248;2022-12-18T14:37:13;-3.70;99.90
7307;DHT22;3694;48.732;9.248;2022-12-18T14:39:39;-3.90;99.90
7307;DHT22;3694;48.732;9.248;2022-12-18T14:42:05;-4.00;99.90
7307;DHT22;3694;48.732;9.248;2022-12-18T14:44:31;-4.10;99.90
7307;DHT22;3694;48.732;9.248;2022-12-18T14:46:56;-4.30;99.90
7307;DHT22;3694;48.732;9.248;2022-12-18T14:49:31;-4.30;99.90
7307;DHT22;3694;48.732;9.248;2022-12-18T14:51:59;-4.40;99.90
7307;DHT22;3694;48.732;9.248;2022-12-18T14:54:25;-4.50;99.90
7307;DHT22;3694;48.732;9.248;2022-12-18T14:57:01;-4.50;99.90
7307;DHT22;3694;48.732;9.248;2022-12-18T14:59:28;-4.60;99.90
7307;DHT22;3694;48.732;9.248;2022-12-18T15:02:01;-4.70;99.90
7307;DHT22;3694;48.732;9.248;2022-12-18T15:04:35;-4.80;99.90
7307;DHT22;3694;48.732;9.248;2022-12-18T15:09:34;-4.90;99.90
7307;DHT22;3694;48.732;9.248;2022-12-18T15:12:00;-5.00;99.90
7307;DHT22;3694;48.732;9.248;2022-12-18T15:14:39;-5.20;99.90
7307;DHT22;3694;48.732;9.248;2022-12-18T15:17:14;-5.30;99.90
7307;DHT22;3694;48.732;9.248;2022-12-18T15:19:43;-4.70;99.90
7307;DHT22;3694;48.732;9.248;2022-12-18T15:24:44;-5.60;99.90
7307;DHT22;3694;48.732;9.248;2022-12-18T15:27:31;-5.60;99.90
7307;DHT22;3694;48.732;9.248;2022-12-18T15:30:17;-5.70;99.90
7307;DHT22;3694;48.732;9.248;2022-12-18T15:32:43;-5.80;99.90
7307;DHT22;3694;48.732;9.248;2022-12-18T15:35:14;-5.90;99.90
7307;DHT22;3694;48.732;9.248;2022-12-18T15:37:40;-5.70;99.90
7307;DHT22;3694;48.732;9.248;2022-12-18T15:40:07;-5.90;99.90
7307;DHT22;3694;48.732;9.248;2022-12-18T15:42:33;-5.90;99.90
7307;DHT22;3694;48.732;9.248;2022-12-18T15:45:17;-5.90;99.90
7307;DHT22;3694;48.732;9.248;2022-12-18T15:47:43;-6.00;99.90
7307;DHT22;3694;48.732;9.248;2022-12-18T15:50:09;-6.00;99.90
7307;DHT22;3694;48.732;9.248;2022-12-18T15:52:40;-6.10;99.90
7307;DHT22;3694;48.732;9.248;2022-12-18T15:55:15;-6.20;99.90
7307;DHT22;3694;48.732;9.248;2022-12-18T15:57:59;-6.30;99.90
7307;DHT22;3694;48.732;9.248;2022-12-18T16:00:25;-6.20;99.90
7307;DHT22;3694;48.732;9.248;2022-12-18T16:02:51;-6.40;99.90
7307;DHT22;3694;48.732;9.248;2022-12-18T16:05:18;-6.40;99.90
7307;DHT22;3694;48.732;9.248;2022-12-18T16:07:45;-6.40;99.90
7307;DHT22;3694;48.732;9.248;2022-12-18T16:10:11;-6.50;99.90
7307;DHT22;3694;48.732;9.248;2022-12-18T16:12:37;-6.30;99.90
7307;DHT22;3694;48.732;9.248;2022-12-18T16:15:05;-6.40;99.90
7307;DHT22;3694;48.732;9.248;2022-12-18T16:17:31;-6.50;99.90
7307;DHT22;3694;48.732;9.248;2022-12-18T16:19:56;-6.50;99.90
7307;DHT22;3694;48.732;9.248;2022-12-18T16:22:24;-6.00;99.90
7307;DHT22;3694;48.732;9.248;2022-12-18T16:24:51;-6.30;99.90
7307;DHT22;3694;48.732;9.248;2022-12-18T16:27:18;-6.20;99.90
7307;DHT22;3694;48.732;9.248;2022-12-18T16:29:44;-6.20;99.90
7307;DHT22;3694;48.732;9.248;2022-12-18T16:32:13;-6.00;99.90
7307;DHT22;3694;48.732;9.248;2022-12-18T16:34:39;-5.90;99.90
7307;DHT22;3694;48.732;9.248;2022-12-18T16:37:07;-5.90;99.90
7307;DHT22;3694;48.732;9.248;2022-12-18T16:39:34;-5.70;99.90
7307;DHT22;3694;48.732;9.248;2022-12-18T16:42:01;-5.60;99.90
7307;DHT22;3694;48.732;9.248;2022-12-18T16:44:27;-5.50;99.90
7307;DHT22;3694;48.732;9.248;2022-12-18T16:46:52;-5.50;99.90
7307;DHT22;3694;48.732;9.248;2022-12-18T16:49:19;-5.50;99.90
7307;DHT22;3694;48.732;9.248;2022-12-18T16:51:47;-5.30;99.90
7307;DHT22;3694;48.732;9.248;2022-12-18T16:54:13;-5.30;99.90
7307;DHT22;3694;48.732;9.248;2022-12-18T16:56:40;-5.50;99.90
7307;DHT22;3694;48.732;9.248;2022-12-18T16:59:07;-5.40;99.90
7307;DHT22;3694;48.732;9.248;2022-12-18T17:01:34;-5.40;99.90
7307;DHT22;3694;48.732;9.248;2022-12-18T17:04:04;-5.40;99.90
7307;DHT22;3694;48.732;9.248;2022-12-18T17:06:32;-5.50;99.90
7307;DHT22;3694;48.732;9.248;2022-12-18T17:09:00;-5.50;99.90
7307;DHT22;3694;48.732;9.248;2022-12-18T17:11:28;-5.50;99.90
7307;DHT22;3694;48.732;9.248;2022-12-18T17:13:54;-5.50;99.90
7307;DHT22;3694;48.732;9.248;2022-12-18T17:16:21;-5.40;99.90
7307;DHT22;3694;48.732;9.248;2022-12-18T17:18:46;-5.40;99.90
7307;DHT22;3694;48.732;9.248;2022-12-18T17:21:12;-5.30;99.90
7307;DHT22;3694;48.732;9.248;2022-12-18T17:23:39;-5.30;99.90
7307;DHT22;3694;48.732;9.248;2022-12-18T17:26:05;-5.10;99.90
7307;DHT22;3694;48.732;9.248;2022-12-18T17:28:33;-5.10;99.90
7307;DHT22;3694;48.732;9.248;2022-12-18T17:30:59;-5.00;99.90
7307;DHT22;3694;48.732;9.248;2022-12-18T17:33:25;-5.00;99.90